Torrey, Idaho
Current Conditions -  °F | °C
As of 9:55 AM on Thursday 27 Nov 2014 (Local Time) from KLLJ Reporting Station
Clear Clear  
Wind Chill: 31°   Ceiling: Unl
Heat Index: 36°   Visibility: 10mi
Dew Point: 29°   Wind: 6mph
Humidity: 76%   Direction: 170°S
Pressure: 30.16"   Gusts: NA
Location:  44.3069°N, 114.439°W
Report Text: KLLJ 271655Z AUTO 17005KT 10SM CLR 02/M02 A3016 RMK AO2 SLP221 T00221017
Loading
Personal Weather Stations






























Interactive Weather Map New forecast layout! Learn more

10-Day Weather Forecast

Advertisements
Track Severe Weather on mobile